Terminal Aerodrome Forecast
Issued by NWS Sioux Falls, SD

Home | Current Version | Previous Version | Graphics & Text | Print | Product List | Glossary Off
Versions: 1 2 3 4 5 6 7 8 9 10 11 12 13 14 15 16 17 18 19

035
FTUS43 KFSD 030527
TAFFSD
TAF
KFSD 030527Z 0306/0406 36021G29KT 3SM -SN BLSN BKN015 OVC035
     FM031000 34016G24KT 4SM BLSN OVC035
     FM031400 33014G19KT P6SM SCT015 BKN060=

USA.gov is the U.S. government's official web portal to all federal, state and local government web resources and services.